createdAt,value
2019-03-16T00:02:14.477Z,99833.69
2019-03-16T00:04:42.907Z,99833.07
2019-03-16T00:07:11.448Z,99841.81
2019-03-16T00:09:39.873Z,99836.34
2019-03-16T00:12:08.326Z,99835.49
2019-03-16T00:14:36.756Z,99839.50
2019-03-16T00:17:05.215Z,99834.88
2019-03-16T00:19:33.714Z,99839.63
2019-03-16T00:22:02.224Z,99847.63
2019-03-16T00:24:30.725Z,99845.30
2019-03-16T00:26:59.159Z,99850.30
2019-03-16T00:29:27.590Z,99861.81
2019-03-16T00:31:56.036Z,99861.81
2019-03-16T00:34:24.593Z,99841.67
2019-03-16T00:36:53.154Z,99858.77
2019-03-16T00:39:21.660Z,99862.16
2019-03-16T00:41:51.754Z,99862.53
2019-03-16T00:44:20.126Z,99868.20
2019-03-16T00:46:48.543Z,99872.58
2019-03-16T00:49:16.996Z,99859.96
2019-03-16T00:51:45.590Z,99859.00
2019-03-16T00:54:14.105Z,99863.23
2019-03-16T00:56:42.638Z,99849.66
2019-03-16T00:59:11.070Z,99857.52
2019-03-16T01:01:39.518Z,99867.71
2019-03-16T01:04:08.089Z,99859.23
2019-03-16T01:06:36.514Z,99873.28
2019-03-16T01:09:07.520Z,99858.84
2019-03-16T01:11:35.951Z,99852.78
2019-03-16T01:14:04.546Z,99853.39
2019-03-16T01:16:33.210Z,99868.64
2019-03-16T01:19:01.750Z,99871.44
2019-03-16T01:21:30.348Z,99870.34
2019-03-16T01:23:58.808Z,99860.27
2019-03-16T01:26:27.233Z,99862.69
2019-03-16T01:28:55.697Z,99860.37
2019-03-16T01:31:24.323Z,99864.27
2019-03-16T01:33:52.747Z,99858.92
2019-03-16T01:36:21.200Z,99858.78
2019-03-16T01:38:49.638Z,99855.52
2019-03-16T01:41:18.096Z,99870.06
2019-03-16T01:43:46.530Z,99859.62
2019-03-16T01:46:15.052Z,99857.33
2019-03-16T01:48:43.717Z,99859.38
2019-03-16T01:51:12.118Z,99850.74
2019-03-16T01:53:40.575Z,99854.41
2019-03-16T01:56:09.000Z,99863.75
2019-03-16T01:58:37.525Z,99866.16
2019-03-16T02:01:06.084Z,99868.83
2019-03-16T02:03:34.718Z,99874.67
2019-03-16T02:06:03.178Z,99875.50
2019-03-16T02:08:32.741Z,99872.00
2019-03-16T02:11:01.344Z,99867.62
2019-03-16T02:13:29.938Z,99866.78
2019-03-16T02:16:10.469Z,99869.45
2019-03-16T02:18:28.599Z,99863.63
2019-03-16T02:20:57.276Z,99859.62
2019-03-16T02:23:25.706Z,99857.33
2019-03-16T02:25:54.284Z,99857.55
2019-03-16T02:28:22.656Z,99863.75
2019-03-16T02:30:51.088Z,99857.08
2019-03-16T02:33:19.560Z,99863.23
2019-03-16T02:35:48.041Z,99866.76
2019-03-16T02:38:16.465Z,99869.80
2019-03-16T02:40:44.966Z,99868.72
2019-03-16T02:43:13.394Z,99868.72
2019-03-16T02:45:41.850Z,99861.17
2019-03-16T02:48:10.348Z,99858.39
2019-03-16T02:50:38.851Z,99860.92
2019-03-16T02:53:07.323Z,99871.23
2019-03-16T02:55:35.811Z,99873.19
2019-03-16T02:58:04.329Z,99865.80
2019-03-16T03:00:33.186Z,99867.75
2019-03-16T03:03:01.609Z,99848.80
2019-03-16T03:05:30.416Z,99854.03
2019-03-16T03:07:58.968Z,99865.67
2019-03-16T03:10:27.351Z,99859.38
2019-03-16T03:12:55.777Z,99855.74
2019-03-16T03:15:24.213Z,99858.64
2019-03-16T03:17:52.653Z,99854.64
2019-03-16T03:20:21.107Z,99861.80
2019-03-16T03:22:49.562Z,99859.98
2019-03-16T03:25:18.050Z,99859.13
2019-03-16T03:27:46.508Z,99856.70
2019-03-16T03:30:15.213Z,99860.81
2019-03-16T03:32:43.709Z,99864.11
2019-03-16T03:35:12.255Z,99864.11
2019-03-16T03:37:40.663Z,99876.59
2019-03-16T03:40:12.589Z,99867.02
2019-03-16T03:42:41.116Z,99866.55
2019-03-16T03:45:11.391Z,99872.50
2019-03-16T03:47:40.069Z,99870.08
2019-03-16T03:50:12.919Z,99877.23
2019-03-16T03:52:41.358Z,99876.63
2019-03-16T03:55:11.719Z,99881.25
2019-03-16T03:57:40.305Z,99872.39
2019-03-16T04:00:14.035Z,99877.87
2019-03-16T04:02:42.688Z,99880.78
2019-03-16T04:05:11.469Z,99875.69
2019-03-16T04:07:40.020Z,99871.45
2019-03-16T04:10:09.880Z,99870.02
2019-03-16T04:12:38.413Z,99872.80
2019-03-16T04:15:09.887Z,99875.60
2019-03-16T04:17:38.489Z,99878.62
2019-03-16T04:20:09.758Z,99874.86
2019-03-16T04:22:38.323Z,99863.95
2019-03-16T04:25:06.820Z,99864.20
2019-03-16T04:27:35.279Z,99874.05
2019-03-16T04:30:05.084Z,99873.77
2019-03-16T04:32:33.510Z,99866.53
2019-03-16T04:35:01.970Z,99874.77
2019-03-16T04:37:30.481Z,99872.72
2019-03-16T04:39:58.939Z,99872.48
2019-03-16T04:42:27.412Z,99869.06
2019-03-16T04:44:55.817Z,99863.15
2019-03-16T04:47:24.291Z,99870.77
2019-03-16T04:49:52.724Z,99864.59
2019-03-16T04:52:21.153Z,99864.11
2019-03-16T04:54:49.582Z,99867.39
2019-03-16T04:57:18.009Z,99870.05
2019-03-16T04:59:46.498Z,99863.50
2019-03-16T05:02:14.929Z,99870.16
2019-03-16T05:04:43.370Z,99861.92
2019-03-16T05:07:11.803Z,99865.55
2019-03-16T05:09:40.235Z,99867.87
2019-03-16T05:12:08.695Z,99867.49
2019-03-16T05:14:37.190Z,99871.16
2019-03-16T05:17:05.646Z,99867.25
2019-03-16T05:19:34.145Z,99862.88
2019-03-16T05:22:02.578Z,99862.05
2019-03-16T05:24:31.081Z,99861.81
2019-03-16T05:26:59.508Z,99856.59
2019-03-16T05:29:27.937Z,99850.92
2019-03-16T05:31:56.397Z,99841.69
2019-03-16T05:34:24.836Z,99852.48
2019-03-16T05:36:55.963Z,99836.59
2019-03-16T05:39:23.422Z,99839.64
2019-03-16T05:41:51.851Z,99847.73
2019-03-16T05:44:20.287Z,99842.41
2019-03-16T05:46:48.757Z,99847.73
2019-03-16T05:49:17.217Z,99840.12
2019-03-16T05:51:45.653Z,99842.41
2019-03-16T05:54:14.086Z,99843.64
2019-03-16T05:56:42.534Z,99830.41
2019-03-16T05:59:10.960Z,99833.93
2019-03-16T06:01:39.419Z,99833.08
2019-03-16T06:04:07.854Z,99828.13
2019-03-16T06:06:36.285Z,99830.41
2019-03-16T06:09:06.453Z,99829.94
2019-03-16T06:11:34.907Z,99828.50
2019-03-16T06:14:03.417Z,99834.65
2019-03-16T06:16:32.001Z,99835.64
2019-03-16T06:19:00.436Z,99831.98
2019-03-16T06:21:28.946Z,99833.69
2019-03-16T06:23:57.376Z,99831.27
2019-03-16T06:26:25.833Z,99823.64
2019-03-16T06:28:54.277Z,99825.32
2019-03-16T06:31:22.843Z,99815.64
2019-03-16T06:33:51.340Z,99815.64
2019-03-16T06:36:19.765Z,99816.23
2019-03-16T06:38:48.205Z,99822.79
2019-03-16T06:41:16.680Z,99816.97
2019-03-16T06:43:45.116Z,99820.84
2019-03-16T06:46:13.556Z,99824.36
2019-03-16T06:48:41.995Z,99820.73
2019-03-16T06:51:10.448Z,99825.55
2019-03-16T06:53:38.953Z,99818.30
2019-03-16T06:56:07.505Z,99810.89
2019-03-16T06:58:35.999Z,99808.59
2019-03-16T07:01:04.509Z,99808.12
2019-03-16T07:03:33.053Z,99811.64
2019-03-16T07:06:01.511Z,99797.94
2019-03-16T07:08:29.948Z,99799.27
2019-03-16T07:10:58.402Z,99797.08
2019-03-16T07:13:26.845Z,99798.55
2019-03-16T07:15:55.283Z,99792.61
2019-03-16T07:18:23.722Z,99786.91
2019-03-16T07:20:52.191Z,99779.89
2019-03-16T07:23:20.709Z,99777.84
2019-03-16T07:25:49.115Z,99777.84
2019-03-16T07:28:17.551Z,99768.52
2019-03-16T07:30:45.987Z,99762.81
2019-03-16T07:33:14.430Z,99764.14
2019-03-16T07:35:42.886Z,99765.95
2019-03-16T07:38:11.355Z,99763.19
2019-03-16T07:40:39.791Z,99759.66
2019-03-16T07:43:08.242Z,99756.14
2019-03-16T07:45:36.670Z,99749.34
2019-03-16T07:48:05.095Z,99742.34
2019-03-16T07:50:33.705Z,99742.20
2019-03-16T07:53:02.289Z,99737.35
2019-03-16T07:55:30.856Z,99736.39
2019-03-16T07:57:59.290Z,99746.91
2019-03-16T08:00:27.805Z,99744.63
2019-03-16T08:02:56.239Z,99739.52
2019-03-16T08:05:24.674Z,99735.90
2019-03-16T08:07:53.129Z,99739.99
2019-03-16T08:10:21.569Z,99751.16
2019-03-16T08:12:50.000Z,99747.97
2019-03-16T08:15:18.440Z,99734.62
2019-03-16T08:17:46.874Z,99739.83
2019-03-16T08:20:15.827Z,99732.04
2019-03-16T08:22:44.339Z,99727.77
2019-03-16T08:25:13.235Z,99725.88
2019-03-16T08:27:53.516Z,99715.28
2019-03-16T08:30:12.449Z,99722.27
2019-03-16T08:32:40.878Z,99718.80
2019-03-16T08:35:09.762Z,99723.36
2019-03-16T08:37:38.193Z,99722.73
2019-03-16T08:40:09.571Z,99722.44
2019-03-16T08:42:38.042Z,99701.62
2019-03-16T08:45:10.609Z,99702.13
2019-03-16T08:47:39.217Z,99694.54
2019-03-16T08:50:09.183Z,99697.12
2019-03-16T08:52:37.693Z,99693.12
2019-03-16T08:55:07.852Z,99685.27
2019-03-16T08:57:36.304Z,99697.34
2019-03-16T09:00:07.343Z,99690.60
2019-03-16T09:02:35.772Z,99698.05
2019-03-16T09:05:05.272Z,99698.30
2019-03-16T09:07:33.693Z,99704.19
2019-03-16T09:10:02.139Z,99700.61
2019-03-16T09:12:30.738Z,99699.00
2019-03-16T09:14:59.207Z,99711.40
2019-03-16T09:17:27.639Z,99701.77
2019-03-16T09:19:56.063Z,99709.79
2019-03-16T09:22:24.505Z,99697.69
2019-03-16T09:24:52.941Z,99705.92
2019-03-16T09:27:30.627Z,99702.49
2019-03-16T09:29:51.594Z,99696.34
2019-03-16T09:32:20.017Z,99699.23
2019-03-16T09:34:48.468Z,99700.08
2019-03-16T09:37:16.909Z,99702.76
2019-03-16T09:39:45.412Z,99693.60
2019-03-16T09:42:13.837Z,99687.27
2019-03-16T09:44:42.291Z,99702.57
2019-03-16T09:47:10.831Z,99692.28
2019-03-16T09:49:39.256Z,99697.48
2019-03-16T09:52:07.776Z,99697.48
2019-03-16T09:54:36.194Z,99687.50
2019-03-16T09:57:04.964Z,99684.31
2019-03-16T09:59:33.500Z,99683.61
2019-03-16T10:02:02.060Z,99692.41
2019-03-16T10:04:30.489Z,99683.56
2019-03-16T10:06:58.923Z,99681.21
2019-03-16T10:09:27.455Z,99680.88
2019-03-16T10:11:55.911Z,99670.17
2019-03-16T10:14:24.348Z,99662.48
2019-03-16T10:16:56.058Z,99651.13
2019-03-16T10:19:24.484Z,99660.22
2019-03-16T10:21:52.914Z,99662.61
2019-03-16T10:24:21.348Z,99650.66
2019-03-16T10:26:50.070Z,99642.06
2019-03-16T10:29:18.772Z,99652.81
2019-03-16T10:31:47.201Z,99646.53
2019-03-16T10:34:16.024Z,99661.46
2019-03-16T10:36:44.656Z,99657.16
2019-03-16T10:39:13.080Z,99653.34
2019-03-16T10:41:41.515Z,99659.92
2019-03-16T10:44:09.989Z,99660.61
2019-03-16T10:46:38.546Z,99659.11
2019-03-16T10:49:07.133Z,99646.45
2019-03-16T10:51:35.642Z,99655.56
2019-03-16T10:54:04.146Z,99646.39
2019-03-16T10:56:32.706Z,99636.86
2019-03-16T10:59:01.145Z,99633.20
2019-03-16T11:01:29.600Z,99629.88
2019-03-16T11:03:58.966Z,99623.58
2019-03-16T11:06:27.424Z,99613.14
2019-03-16T11:08:55.861Z,99617.36
2019-03-16T11:11:24.318Z,99624.75
2019-03-16T11:13:52.753Z,99624.94
2019-03-16T11:16:21.213Z,99634.03
2019-03-16T11:18:49.748Z,99649.63
2019-03-16T11:21:18.379Z,99633.91
2019-03-16T11:23:46.980Z,99642.14
2019-03-16T11:26:15.406Z,99629.63
2019-03-16T11:28:44.012Z,99623.12
2019-03-16T11:31:12.769Z,99638.79
2019-03-16T11:33:41.900Z,99618.36
2019-03-16T11:36:11.264Z,99617.45
2019-03-16T11:38:40.447Z,99623.82
2019-03-16T11:41:09.909Z,99612.02
2019-03-16T11:43:38.350Z,99612.02
2019-03-16T11:46:06.787Z,99595.80
2019-03-16T11:48:35.218Z,99600.83
2019-03-16T11:51:03.679Z,99602.73
2019-03-16T11:53:32.115Z,99597.06
2019-03-16T11:56:00.545Z,99600.79
2019-03-16T11:58:29.075Z,99595.43
2019-03-16T12:00:57.704Z,99602.81
2019-03-16T12:03:26.163Z,99589.58
2019-03-16T12:05:54.597Z,99594.94
2019-03-16T12:08:23.036Z,99592.58
2019-03-16T12:10:51.537Z,99576.49
2019-03-16T12:13:20.242Z,99594.94
2019-03-16T12:15:48.845Z,99586.70
2019-03-16T12:18:17.285Z,99608.28
2019-03-16T12:20:45.784Z,99596.38
2019-03-16T12:23:14.234Z,99600.05
2019-03-16T12:25:42.808Z,99587.13
2019-03-16T12:28:11.251Z,99593.34
2019-03-16T12:30:40.152Z,99603.58
2019-03-16T12:33:08.607Z,99595.73
2019-03-16T12:35:37.036Z,99592.06
2019-03-16T12:38:05.610Z,99554.52
2019-03-16T12:40:34.345Z,99565.38
2019-03-16T12:43:02.789Z,99567.41
2019-03-16T12:45:31.222Z,99583.50
2019-03-16T12:47:59.656Z,99573.29
2019-03-16T12:50:28.086Z,99569.76
2019-03-16T12:52:56.610Z,99576.59
2019-03-16T12:55:25.042Z,99586.15
2019-03-16T12:57:53.664Z,99573.78
2019-03-16T13:00:23.444Z,99573.13
2019-03-16T13:02:51.888Z,99568.74
2019-03-16T13:05:20.345Z,99567.41
2019-03-16T13:07:48.780Z,99577.31
2019-03-16T13:10:18.732Z,99555.50
2019-03-16T13:12:47.311Z,99525.16
2019-03-16T13:15:16.059Z,99557.20
2019-03-16T13:17:44.562Z,99554.22
2019-03-16T13:20:14.028Z,99549.38
2019-03-16T13:22:42.480Z,99552.77
2019-03-16T13:25:11.555Z,99543.03
2019-03-16T13:27:40.192Z,99550.39
2019-03-16T13:30:14.989Z,99545.82
2019-03-16T13:32:43.543Z,99530.03
2019-03-16T13:35:12.348Z,99552.27
2019-03-16T13:37:40.808Z,99544.88
2019-03-16T13:40:12.372Z,99539.16
2019-03-16T13:42:40.913Z,99532.14
2019-03-16T13:45:10.779Z,99512.33
2019-03-16T13:47:39.655Z,99529.09
2019-03-16T13:50:13.076Z,99519.58
2019-03-16T13:52:41.711Z,99523.24
2019-03-16T13:55:10.381Z,99533.12
2019-03-16T13:57:38.925Z,99506.48
2019-03-16T14:00:15.598Z,99513.67
2019-03-16T14:02:44.185Z,99493.70
2019-03-16T14:05:12.747Z,99495.88
2019-03-16T14:07:41.466Z,99512.46
2019-03-16T14:10:22.475Z,99515.67
2019-03-16T14:12:50.924Z,99529.08
2019-03-16T14:15:19.489Z,99518.08
2019-03-16T14:17:47.950Z,99518.08
2019-03-16T14:20:17.066Z,99512.77
2019-03-16T14:22:45.498Z,99508.77
2019-03-16T14:25:13.930Z,99512.84
2019-03-16T14:27:42.408Z,99504.82
2019-03-16T14:30:34.778Z,99506.54
2019-03-16T14:32:46.126Z,99513.98
2019-03-16T14:35:14.964Z,99499.41
2019-03-16T14:37:43.664Z,99469.41
2019-03-16T14:40:13.497Z,99479.05
2019-03-16T14:42:42.080Z,99489.66
2019-03-16T14:45:12.654Z,99476.59
2019-03-16T14:47:41.177Z,99472.27
2019-03-16T14:50:23.361Z,99475.94
2019-03-16T14:52:51.790Z,99487.66
2019-03-16T14:55:20.579Z,99458.80
2019-03-16T14:57:49.234Z,99456.97
2019-03-16T15:00:18.448Z,99466.67
2019-03-16T15:02:47.075Z,99474.72
2019-03-16T15:05:15.831Z,99456.78
2019-03-16T15:07:44.332Z,99477.94
2019-03-16T15:10:15.034Z,99455.50
2019-03-16T15:12:43.559Z,99463.38
2019-03-16T15:15:14.691Z,99446.11
2019-03-16T15:17:43.321Z,99456.48
2019-03-16T15:20:12.828Z,99444.53
2019-03-16T15:22:41.333Z,99453.73
2019-03-16T15:25:13.528Z,99449.35
2019-03-16T15:27:42.177Z,99438.63
2019-03-16T15:30:15.665Z,99442.63
2019-03-16T15:32:44.104Z,99438.25
2019-03-16T15:35:12.703Z,99433.20
2019-03-16T15:37:41.227Z,99413.57
2019-03-16T15:40:17.169Z,99429.84
2019-03-16T15:42:45.690Z,99428.14
2019-03-16T15:45:19.490Z,99423.09
2019-03-16T15:47:48.090Z,99437.52
2019-03-16T15:50:16.684Z,99411.98
2019-03-16T15:52:45.198Z,99432.10
2019-03-16T15:55:13.833Z,99409.80
2019-03-16T15:57:43.016Z,99415.66
2019-03-16T16:00:16.543Z,99425.05
2019-03-16T16:02:45.172Z,99409.13
2019-03-16T16:05:13.947Z,99410.95
2019-03-16T16:07:43.496Z,99405.90
2019-03-16T16:10:19.676Z,99406.39
2019-03-16T16:12:48.252Z,99401.55
2019-03-16T16:15:16.953Z,99401.69
2019-03-16T16:17:45.462Z,99395.16
2019-03-16T16:20:15.378Z,99393.81
2019-03-16T16:22:43.877Z,99384.44
2019-03-16T16:25:13.358Z,99383.41
2019-03-16T16:27:41.878Z,99376.41
2019-03-16T16:30:15.049Z,99381.13
2019-03-16T16:32:43.478Z,99373.91
2019-03-16T16:35:13.357Z,99366.70
2019-03-16T16:37:41.817Z,99382.80
2019-03-16T16:40:15.481Z,99378.77
2019-03-16T16:42:44.552Z,99376.09
2019-03-16T16:45:15.063Z,99373.58
2019-03-16T16:47:43.602Z,99368.71
2019-03-16T16:50:26.288Z,99351.28
2019-03-16T16:52:54.716Z,99367.38
2019-03-16T16:55:23.225Z,99367.02
2019-03-16T16:57:51.688Z,99346.23
2019-03-16T17:00:25.427Z,99353.92
2019-03-16T17:02:54.187Z,99368.66
2019-03-16T17:05:22.660Z,99364.64
2019-03-16T17:07:51.206Z,99360.30
2019-03-16T17:10:19.747Z,99365.80
2019-03-16T17:12:48.213Z,99370.31
2019-03-16T17:15:18.293Z,99350.20
2019-03-16T17:17:46.724Z,99356.09
2019-03-16T17:20:16.029Z,99352.70
2019-03-16T17:22:44.636Z,99348.17
2019-03-16T17:25:14.141Z,99340.77
2019-03-16T17:27:42.812Z,99353.67
2019-03-16T17:30:14.082Z,99344.78
2019-03-16T17:32:42.681Z,99341.97
2019-03-16T17:35:11.552Z,99350.31
2019-03-16T17:37:39.997Z,99340.94
2019-03-16T17:40:11.522Z,99345.45
2019-03-16T17:42:40.049Z,99324.66
2019-03-16T17:45:11.249Z,99334.05
2019-03-16T17:47:39.974Z,99338.20
2019-03-16T17:50:11.330Z,99329.35
2019-03-16T17:52:39.917Z,99340.70
2019-03-16T17:55:11.312Z,99333.50
2019-03-16T17:57:39.873Z,99343.02
2019-03-16T18:00:13.653Z,99331.97
2019-03-16T18:02:51.220Z,99329.30
2019-03-16T18:05:12.384Z,99327.10
2019-03-16T18:07:40.970Z,99330.41
2019-03-16T18:10:11.171Z,99324.05
2019-03-16T18:12:39.599Z,99324.19
2019-03-16T18:15:14.135Z,99334.42
2019-03-16T18:17:42.633Z,99324.88
2019-03-16T18:20:20.814Z,99320.54
2019-03-16T18:22:49.362Z,99330.30
2019-03-16T18:25:17.881Z,99328.63
2019-03-16T18:27:46.479Z,99332.48
2019-03-16T18:30:22.826Z,99321.44
2019-03-16T18:32:51.250Z,99326.80
2019-03-16T18:35:19.823Z,99330.81
2019-03-16T18:37:48.253Z,99323.45
2019-03-16T18:40:17.025Z,99328.95
2019-03-16T18:42:45.602Z,99336.99
2019-03-16T18:45:23.000Z,99330.64
2019-03-16T18:47:51.448Z,99326.94
2019-03-16T18:50:20.025Z,99322.06
2019-03-16T18:52:49.054Z,99329.78
2019-03-16T18:55:17.573Z,99326.75
2019-03-16T18:57:46.013Z,99318.89
2019-03-16T19:00:18.896Z,99320.23
2019-03-16T19:02:47.543Z,99315.53
2019-03-16T19:05:16.247Z,99323.41
2019-03-16T19:07:44.888Z,99310.17
2019-03-16T19:10:15.606Z,99302.98
2019-03-16T19:12:44.652Z,99303.97
2019-03-16T19:15:15.558Z,99289.27
2019-03-16T19:17:44.062Z,99288.74
2019-03-16T19:20:13.967Z,99280.20
2019-03-16T19:22:42.739Z,99280.70
2019-03-16T19:25:16.809Z,99273.33
2019-03-16T19:27:44.551Z,99273.00
2019-03-16T19:30:14.892Z,99274.29
2019-03-16T19:32:43.860Z,99273.45
2019-03-16T19:35:12.772Z,99266.61
2019-03-16T19:37:41.782Z,99274.66
2019-03-16T19:40:14.972Z,99265.95
2019-03-16T19:42:46.487Z,99263.94
2019-03-16T19:45:13.723Z,99251.39
2019-03-16T19:47:42.252Z,99246.37
2019-03-16T19:50:17.670Z,99263.28
2019-03-16T19:52:46.225Z,99248.53
2019-03-16T19:55:15.064Z,99251.22
2019-03-16T19:57:43.512Z,99242.19
2019-03-16T20:00:17.005Z,99244.38
2019-03-16T20:02:50.706Z,99247.91
2019-03-16T20:05:16.185Z,99244.59
2019-03-16T20:07:44.767Z,99240.58
2019-03-16T20:10:14.584Z,99231.83
2019-03-16T20:12:43.143Z,99225.30
2019-03-16T20:15:12.999Z,99226.50
2019-03-16T20:17:41.451Z,99193.31
2019-03-16T20:20:11.487Z,99213.42
2019-03-16T20:22:39.969Z,99207.73
2019-03-16T20:25:08.871Z,99209.74
2019-03-16T20:27:37.381Z,99209.74
2019-03-16T20:30:11.578Z,99208.19
2019-03-16T20:32:40.058Z,99193.63
2019-03-16T20:35:09.650Z,99189.60
2019-03-16T20:37:38.145Z,99194.61
2019-03-16T20:40:11.978Z,99195.31
2019-03-16T20:42:39.682Z,99172.17
2019-03-16T20:45:09.743Z,99185.22
2019-03-16T20:47:38.170Z,99166.47
2019-03-16T20:50:12.591Z,99171.16
2019-03-16T20:52:41.027Z,99174.33
2019-03-16T20:55:10.358Z,99174.15
2019-03-16T20:57:38.983Z,99172.14
2019-03-16T21:00:12.645Z,99166.42
2019-03-16T21:02:41.142Z,99161.56
2019-03-16T21:05:10.831Z,99161.42
2019-03-16T21:07:39.266Z,99165.09
2019-03-16T21:10:09.773Z,99163.74
2019-03-16T21:12:38.276Z,99158.06
2019-03-16T21:15:09.967Z,99165.75
2019-03-16T21:17:38.500Z,99140.47
2019-03-16T21:20:10.169Z,99131.27
2019-03-16T21:22:39.275Z,99127.39
2019-03-16T21:25:10.054Z,99135.92
2019-03-16T21:27:38.666Z,99124.53
2019-03-16T21:30:12.816Z,99122.87
2019-03-16T21:32:41.251Z,99128.87
2019-03-16T21:35:09.823Z,99118.84
2019-03-16T21:37:38.289Z,99135.25
2019-03-16T21:40:09.489Z,99110.59
2019-03-16T21:42:38.013Z,99108.77
2019-03-16T21:45:09.317Z,99118.46
2019-03-16T21:47:37.778Z,99117.47
2019-03-16T21:50:09.185Z,99114.80
2019-03-16T21:52:37.701Z,99124.17
2019-03-16T21:55:08.768Z,99100.05
2019-03-16T21:57:37.304Z,99111.45
2019-03-16T22:00:17.271Z,99096.67
2019-03-16T22:02:45.808Z,99102.38
2019-03-16T22:05:14.605Z,99093.50
2019-03-16T22:07:43.177Z,99102.38
2019-03-16T22:10:16.520Z,99087.16
2019-03-16T22:12:45.047Z,99091.00
2019-03-16T22:15:14.614Z,99079.61
2019-03-16T22:17:43.505Z,99081.94
2019-03-16T22:20:19.288Z,99090.33
2019-03-16T22:22:47.796Z,99078.59
2019-03-16T22:25:16.483Z,99074.25
2019-03-16T22:27:44.997Z,99076.61
2019-03-16T22:30:17.717Z,99070.90
2019-03-16T22:32:46.263Z,99053.80
2019-03-16T22:35:14.713Z,99070.55
2019-03-16T22:37:43.184Z,99064.37
2019-03-16T22:40:15.331Z,99050.98
2019-03-16T22:42:44.204Z,99044.11
2019-03-16T22:45:13.743Z,99053.48
2019-03-16T22:47:42.442Z,99051.47
2019-03-16T22:50:18.294Z,99040.75
2019-03-16T22:52:46.803Z,99040.27
2019-03-16T22:55:16.102Z,99045.77
2019-03-16T22:57:45.212Z,99044.28
2019-03-16T23:00:16.865Z,99019.14
2019-03-16T23:02:45.472Z,99021.33
2019-03-16T23:05:13.997Z,99014.62
2019-03-16T23:07:42.430Z,99023.48
2019-03-16T23:10:11.995Z,99005.58
2019-03-16T23:12:40.495Z,99004.73
2019-03-16T23:15:12.416Z,99008.92
2019-03-16T23:17:40.851Z,99005.25
2019-03-16T23:20:10.423Z,98996.52
2019-03-16T23:22:38.951Z,98987.84
2019-03-16T23:25:11.040Z,98987.98
2019-03-16T23:27:39.655Z,98984.81
2019-03-16T23:30:09.923Z,98981.28
2019-03-16T23:32:38.427Z,98983.47
2019-03-16T23:35:08.394Z,98964.70
2019-03-16T23:37:36.901Z,98974.78
2019-03-16T23:40:08.063Z,98944.28
2019-03-16T23:42:36.592Z,98969.10
2019-03-16T23:45:08.308Z,98961.06
2019-03-16T23:47:36.810Z,98957.36
2019-03-16T23:50:07.879Z,98949.34
2019-03-16T23:52:37.151Z,98938.80
2019-03-16T23:55:07.139Z,98947.34
2019-03-16T23:57:35.569Z,98937.95
